createdAt,value
2019-03-30T00:02:26.706Z,19.82
2019-03-30T00:07:28.298Z,19.40
2019-03-30T00:12:31.251Z,18.42
2019-03-30T00:17:32.748Z,18.92
2019-03-30T00:22:34.397Z,18.82
2019-03-30T00:27:37.390Z,18.85
2019-03-30T00:32:38.694Z,18.55
2019-03-30T00:37:40.257Z,17.75
2019-03-30T00:42:41.792Z,18.57
2019-03-30T00:47:43.429Z,17.85
2019-03-30T00:52:45.034Z,17.05
2019-03-30T00:57:46.646Z,18.07
2019-03-30T01:02:48.060Z,17.70
2019-03-30T01:07:50.063Z,16.82
2019-03-30T01:12:51.650Z,17.77
2019-03-30T01:17:54.478Z,18.17
2019-03-30T01:22:55.787Z,17.10
2019-03-30T01:27:57.407Z,18.02
2019-03-30T01:32:59.352Z,18.02
2019-03-30T01:38:00.799Z,17.70
2019-03-30T01:43:02.327Z,17.98
2019-03-30T01:48:03.964Z,17.85
2019-03-30T01:53:05.368Z,18.67
2019-03-30T01:58:08.112Z,18.15
2019-03-30T02:03:09.715Z,17.55
2019-03-30T02:08:11.730Z,17.17
2019-03-30T02:13:13.218Z,18.27
2019-03-30T02:18:14.657Z,17.77
2019-03-30T02:23:16.353Z,17.40
2019-03-30T02:28:18.165Z,20.17
2019-03-30T02:33:21.313Z,20.23
2019-03-30T02:38:22.775Z,18.67
2019-03-30T02:43:24.252Z,18.45
2019-03-30T02:48:25.823Z,19.25
2019-03-30T02:53:29.178Z,19.20
2019-03-30T02:58:32.793Z,19.17
2019-03-30T03:03:34.296Z,18.55
2019-03-30T03:08:37.525Z,19.02
2019-03-30T03:13:38.934Z,18.00
2019-03-30T03:18:40.440Z,18.92
2019-03-30T03:23:41.982Z,18.87
2019-03-30T03:28:43.570Z,18.77
2019-03-30T03:33:45.305Z,18.77
2019-03-30T03:38:46.899Z,19.62
2019-03-30T03:43:50.400Z,19.57
2019-03-30T03:48:51.875Z,19.12
2019-03-30T03:59:15.348Z,17.98
2019-03-30T04:04:21.014Z,18.75
2019-03-30T04:09:22.867Z,17.98
2019-03-30T04:14:25.385Z,19.85
2019-03-30T04:19:27.103Z,17.70
2019-03-30T04:24:28.455Z,18.25
2019-03-30T04:29:29.758Z,18.15
2019-03-30T04:34:31.082Z,19.07
2019-03-30T04:39:34.232Z,19.85
2019-03-30T04:44:37.712Z,19.05
2019-03-30T04:49:39.112Z,17.37
2019-03-30T04:54:42.181Z,17.62
2019-03-30T04:59:43.670Z,18.25
2019-03-30T05:04:45.357Z,18.42
2019-03-30T05:09:46.777Z,18.10
2019-03-30T05:14:48.266Z,17.00
2019-03-30T05:19:49.944Z,18.85
2019-03-30T05:24:51.492Z,16.55
2019-03-30T05:29:53.165Z,17.98
2019-03-30T05:34:54.729Z,17.17
2019-03-30T05:39:56.379Z,16.80
2019-03-30T05:44:58.208Z,18.73
2019-03-30T05:50:00.037Z,18.87
2019-03-30T05:55:01.831Z,19.92
2019-03-30T06:00:06.809Z,19.15
2019-03-30T06:05:09.584Z,19.70
2019-03-30T06:10:11.276Z,19.55
2019-03-30T06:15:13.168Z,20.17
2019-03-30T06:20:14.821Z,19.42
2019-03-30T06:25:16.187Z,20.60
2019-03-30T06:30:26.481Z,20.62
2019-03-30T06:35:28.048Z,19.00
2019-03-30T06:40:29.591Z,17.23
2019-03-30T06:45:32.942Z,17.32
2019-03-30T06:50:34.563Z,17.67
2019-03-30T06:55:36.558Z,16.82
2019-03-30T07:00:38.100Z,16.65
2019-03-30T07:05:41.122Z,17.57
2019-03-30T07:10:43.948Z,16.97
2019-03-30T07:15:47.236Z,17.52
2019-03-30T07:21:07.500Z,15.70
2019-03-30T07:26:09.630Z,17.85
2019-03-30T07:31:11.093Z,16.17
2019-03-30T07:36:14.146Z,15.85
2019-03-30T07:41:15.640Z,16.85
2019-03-30T07:46:19.634Z,14.70
2019-03-30T07:51:20.571Z,16.02
2019-03-30T07:56:21.965Z,14.93
2019-03-30T08:01:24.707Z,14.83
2019-03-30T08:06:26.187Z,15.40
2019-03-30T08:11:27.620Z,14.73
2019-03-30T08:16:29.003Z,15.98
2019-03-30T08:21:30.323Z,14.50
2019-03-30T08:26:31.784Z,16.02
2019-03-30T08:31:37.145Z,15.38
2019-03-30T08:36:39.028Z,14.78
2019-03-30T08:41:40.589Z,14.83
2019-03-30T08:46:42.477Z,14.73
2019-03-30T08:51:45.888Z,14.30
2019-03-30T08:56:47.389Z,14.25
2019-03-30T09:01:49.709Z,13.45
2019-03-30T09:06:51.093Z,14.75
2019-03-30T09:11:52.404Z,15.03
2019-03-30T09:16:56.697Z,13.45
2019-03-30T09:21:58.313Z,14.13
2019-03-30T09:26:59.675Z,14.18
2019-03-30T09:32:13.823Z,14.00
2019-03-30T09:37:06.553Z,14.70
2019-03-30T09:42:08.202Z,15.15
2019-03-30T09:47:09.514Z,15.93
2019-03-30T09:52:11.526Z,15.00
2019-03-30T09:57:13.398Z,16.97
2019-03-30T10:02:15.992Z,16.32
2019-03-30T10:07:17.403Z,16.70
2019-03-30T10:12:18.690Z,16.00
2019-03-30T10:17:20.129Z,16.42
2019-03-30T10:22:21.601Z,17.45
2019-03-30T10:27:23.406Z,17.12
2019-03-30T10:32:25.341Z,18.48
2019-03-30T10:37:45.351Z,18.90
2019-03-30T10:42:49.045Z,18.60
2019-03-30T10:47:50.395Z,18.70
2019-03-30T10:52:51.931Z,19.40
2019-03-30T10:57:53.329Z,20.25
2019-03-30T11:02:54.932Z,18.87
2019-03-30T11:07:56.395Z,19.60
2019-03-30T11:12:57.840Z,20.55
2019-03-30T11:17:59.286Z,20.10
2019-03-30T11:23:00.913Z,22.40
2019-03-30T11:28:02.713Z,21.30
2019-03-30T11:33:04.216Z,22.60
2019-03-30T11:38:05.658Z,20.92
2019-03-30T11:43:07.186Z,20.85
2019-03-30T11:48:09.675Z,20.27
2019-03-30T11:53:11.195Z,18.85
2019-03-30T11:58:12.639Z,19.42
2019-03-30T12:03:14.835Z,18.45
2019-03-30T12:08:16.315Z,18.42
2019-03-30T12:13:21.396Z,18.17
2019-03-30T12:18:22.816Z,19.10
2019-03-30T12:23:26.404Z,18.15
2019-03-30T12:28:27.977Z,16.67
2019-03-30T12:33:29.639Z,16.90
2019-03-30T12:38:31.213Z,16.67
2019-03-30T12:43:38.773Z,16.90
2019-03-30T12:48:40.330Z,18.67
2019-03-30T12:53:49.930Z,17.45
2019-03-30T12:58:45.907Z,17.57
2019-03-30T13:03:47.544Z,17.12
2019-03-30T13:08:49.733Z,18.02
2019-03-30T13:13:51.797Z,17.95
2019-03-30T13:18:56.589Z,18.48
2019-03-30T13:24:01.453Z,19.60
2019-03-30T13:29:04.817Z,16.52
2019-03-30T13:34:07.190Z,17.40
2019-03-30T13:39:09.139Z,18.27
2019-03-30T13:44:11.091Z,18.82
2019-03-30T13:49:12.840Z,18.05
2019-03-30T13:54:14.809Z,18.67
2019-03-30T13:59:16.568Z,19.35
2019-03-30T14:04:36.829Z,18.37
2019-03-30T14:09:38.287Z,18.80
2019-03-30T14:14:39.731Z,18.98
2019-03-30T14:19:42.388Z,22.90
2019-03-30T14:24:43.857Z,21.52
2019-03-30T14:29:45.295Z,21.02
2019-03-30T14:34:47.045Z,20.77
2019-03-30T14:39:48.618Z,20.30
2019-03-30T14:44:50.116Z,21.07
2019-03-30T14:49:51.780Z,21.52
2019-03-30T14:54:54.465Z,21.80
2019-03-30T14:59:59.071Z,20.85
2019-03-30T15:05:01.168Z,22.40
2019-03-30T15:10:06.819Z,21.50
2019-03-30T15:15:09.825Z,21.93
2019-03-30T15:20:13.294Z,20.85
2019-03-30T15:25:14.845Z,21.85
2019-03-30T15:30:16.518Z,20.68
2019-03-30T15:35:18.728Z,21.87
2019-03-30T15:40:20.063Z,20.82
2019-03-30T15:45:21.372Z,22.15
2019-03-30T15:50:25.620Z,23.42
2019-03-30T15:55:27.114Z,22.93
2019-03-30T16:00:28.664Z,22.50
2019-03-30T16:05:30.235Z,27.98
2019-03-30T16:10:32.910Z,28.55
2019-03-30T16:15:34.407Z,28.87
2019-03-30T16:20:39.029Z,29.60
2019-03-30T16:25:40.772Z,28.62
2019-03-30T16:30:42.281Z,28.87
2019-03-30T16:35:43.730Z,27.40
2019-03-30T16:40:45.341Z,28.95
2019-03-30T16:45:46.946Z,32.10
2019-03-30T16:50:48.415Z,30.62
2019-03-30T16:55:50.080Z,30.70
2019-03-30T17:00:56.917Z,29.00
2019-03-30T17:05:57.075Z,29.25
2019-03-30T17:10:58.553Z,30.60
2019-03-30T17:15:59.922Z,29.92
2019-03-30T17:21:02.069Z,30.23
2019-03-30T17:26:03.910Z,29.72
2019-03-30T17:31:07.713Z,30.25
2019-03-30T17:36:09.372Z,30.68
2019-03-30T17:41:11.930Z,30.37
2019-03-30T17:46:13.358Z,29.67
2019-03-30T17:51:16.085Z,34.33
2019-03-30T17:56:17.581Z,32.98
2019-03-30T18:01:18.991Z,33.33
2019-03-30T18:06:20.467Z,34.67
2019-03-30T18:11:22.011Z,34.13
2019-03-30T18:16:23.549Z,36.75
2019-03-30T18:21:24.883Z,39.90
2019-03-30T18:26:26.253Z,38.48
2019-03-30T18:31:27.686Z,40.50
2019-03-30T18:36:30.443Z,41.45
2019-03-30T18:41:31.917Z,41.60
2019-03-30T18:46:33.495Z,41.83
2019-03-30T18:51:38.351Z,40.25
2019-03-30T18:56:39.807Z,39.75
2019-03-30T19:01:41.173Z,39.75
2019-03-30T19:06:42.753Z,41.15
2019-03-30T19:11:45.393Z,42.48
2019-03-30T19:16:46.817Z,42.55
2019-03-30T19:21:48.245Z,41.98
2019-03-30T19:26:49.683Z,40.08
2019-03-30T19:31:51.234Z,42.05
2019-03-30T19:36:55.768Z,41.75
2019-03-30T19:41:57.298Z,39.80
2019-03-30T19:46:59.249Z,38.75
2019-03-30T19:52:00.629Z,42.08
2019-03-30T19:57:02.017Z,55.48
2019-03-30T20:02:04.148Z,43.00
2019-03-30T20:07:05.891Z,54.10
2019-03-30T20:12:07.313Z,46.95
2019-03-30T20:17:09.271Z,44.80
2019-03-30T20:22:10.829Z,46.95
2019-03-30T20:27:12.262Z,45.43
2019-03-30T20:32:13.583Z,45.83
2019-03-30T20:37:15.159Z,43.48
2019-03-30T20:42:17.779Z,45.65
2019-03-30T20:47:19.234Z,41.50
2019-03-30T20:52:21.660Z,39.00
2019-03-30T20:57:23.159Z,41.68
2019-03-30T21:02:24.544Z,42.93
2019-03-30T21:07:25.992Z,43.58
2019-03-30T21:12:27.418Z,42.17
2019-03-30T21:17:29.897Z,43.20
2019-03-30T21:22:31.322Z,43.38
2019-03-30T21:27:32.912Z,42.00
2019-03-30T21:32:34.332Z,43.95
2019-03-30T21:37:36.100Z,42.53
2019-03-30T21:42:38.939Z,40.70
2019-03-30T21:47:40.288Z,42.50
2019-03-30T21:52:43.980Z,41.00
2019-03-30T21:57:45.712Z,38.67
2019-03-30T22:02:48.127Z,42.05
2019-03-30T22:07:49.870Z,42.13
2019-03-30T22:12:51.642Z,45.05
2019-03-30T22:17:53.223Z,44.38
2019-03-30T22:28:00.688Z,45.48
2019-03-30T22:33:02.203Z,42.75
2019-03-30T22:38:03.675Z,43.13
2019-03-30T22:43:05.325Z,45.58
2019-03-30T22:48:06.659Z,44.50
2019-03-30T22:53:08.238Z,43.35
2019-03-30T22:58:11.720Z,46.30
2019-03-30T23:03:14.504Z,44.85
2019-03-30T23:08:16.122Z,47.35
2019-03-30T23:13:17.609Z,48.28
2019-03-30T23:18:18.991Z,48.33
2019-03-30T23:23:20.472Z,48.78
2019-03-30T23:28:22.161Z,49.73
2019-03-30T23:33:23.643Z,48.13
2019-03-30T23:38:25.581Z,50.73
2019-03-30T23:43:26.971Z,48.70
2019-03-30T23:48:28.531Z,48.05
2019-03-30T23:53:30.033Z,49.30
2019-03-30T23:58:31.669Z,49.80
